createdAt,value
2023-05-18T00:02:16.759Z,21
2023-05-18T00:07:20.054Z,21
2023-05-18T00:12:19.973Z,21
2023-05-18T00:17:23.083Z,21
2023-05-18T00:22:25.920Z,20.9
2023-05-18T00:27:26.247Z,21
2023-05-18T00:32:26.641Z,21
2023-05-18T00:37:27.134Z,21
2023-05-18T00:42:27.654Z,21
2023-05-18T00:47:28.335Z,20.9
2023-05-18T00:52:28.794Z,20.9
2023-05-18T00:57:30.255Z,20.9
2023-05-18T01:02:31.295Z,20.9
2023-05-18T01:07:31.857Z,20.9
2023-05-18T01:12:35.096Z,20.8
2023-05-18T01:17:34.953Z,20.9
2023-05-18T01:22:36.273Z,20.9
2023-05-18T01:27:36.546Z,20.8
2023-05-18T01:32:36.797Z,20.9
2023-05-18T01:37:37.263Z,20.9
2023-05-18T01:42:37.965Z,20.9
2023-05-18T01:47:39.270Z,20.9
2023-05-18T01:52:39.551Z,20.9
2023-05-18T01:57:40.102Z,20.8
2023-05-18T02:02:40.667Z,20.9
2023-05-18T02:07:41.254Z,20.9
2023-05-18T02:12:40.756Z,20.9
2023-05-18T02:17:41.699Z,20.8
2023-05-18T02:22:42.097Z,20.8
2023-05-18T02:27:42.660Z,20.9
2023-05-18T02:32:43.111Z,20.8
2023-05-18T02:37:45.436Z,20.7
2023-05-18T02:42:45.341Z,20.8
2023-05-18T02:47:45.859Z,20.8
2023-05-18T02:52:46.473Z,20.8
2023-05-18T02:57:47.103Z,20.8
2023-05-18T03:02:47.429Z,20.8
2023-05-18T03:07:50.651Z,20.8
2023-05-18T03:12:50.737Z,20.8
2023-05-18T03:17:54.022Z,20.8
2023-05-18T03:22:53.798Z,20.8
2023-05-18T03:27:54.514Z,20.7
2023-05-18T03:32:54.999Z,20.8
2023-05-18T03:37:55.480Z,20.8
2023-05-18T03:42:56.081Z,20.8
2023-05-18T03:47:56.562Z,20.8
2023-05-18T03:52:59.771Z,20.8
2023-05-18T03:57:59.649Z,20.7
2023-05-18T04:03:00.415Z,20.7
2023-05-18T04:08:03.609Z,20.7
2023-05-18T04:13:03.616Z,20.7
2023-05-18T04:18:06.821Z,20.8
2023-05-18T04:23:09.410Z,20.7
2023-05-18T04:28:09.396Z,20.7
2023-05-18T04:33:09.898Z,20.6
2023-05-18T04:38:10.308Z,20.7
2023-05-18T04:43:10.933Z,20.7
2023-05-18T04:48:11.609Z,20.6
2023-05-18T04:53:23.822Z,20.7
2023-05-18T04:58:22.540Z,20.6
2023-05-18T05:03:23.287Z,20.7
2023-05-18T05:08:23.611Z,20.7
2023-05-18T05:13:24.069Z,20.7
2023-05-18T05:18:27.432Z,20.7
2023-05-18T05:23:28.079Z,20.7
2023-05-18T05:28:14.227Z,20.7
2023-05-18T05:33:14.763Z,20.7
2023-05-18T05:38:15.180Z,20.7
2023-05-18T05:43:15.816Z,20.6
2023-05-18T05:48:16.224Z,20.5
2023-05-18T05:53:19.421Z,20.6
2023-05-18T05:58:19.511Z,20.6
2023-05-18T06:03:20.157Z,20.6
2023-05-18T06:08:20.542Z,20.6
2023-05-18T06:13:21.112Z,20.6
2023-05-18T06:18:21.589Z,20.6
2023-05-18T06:23:22.252Z,20.6
2023-05-18T06:28:25.626Z,20.6
2023-05-18T06:33:28.381Z,20.3
2023-05-18T06:38:30.774Z,20.6
2023-05-18T06:43:30.660Z,20.6
2023-05-18T06:48:31.373Z,20.6
2023-05-18T06:53:32.019Z,20.6
2023-05-18T06:58:36.186Z,20.6
2023-05-18T07:03:36.057Z,20.6
2023-05-18T07:08:39.247Z,20.7
2023-05-18T07:13:39.147Z,20.6
2023-05-18T07:18:39.669Z,20.6
2023-05-18T07:23:39.933Z,20.6
2023-05-18T07:28:39.226Z,20.7
2023-05-18T07:33:42.675Z,20.7
2023-05-18T07:38:42.655Z,20.6
2023-05-18T07:43:43.176Z,20.6
2023-05-18T07:48:43.524Z,20.6
2023-05-18T07:53:44.165Z,20.6
2023-05-18T07:58:47.401Z,20.7
2023-05-18T08:03:50.051Z,20.7
2023-05-18T08:08:51.005Z,20.6
2023-05-18T08:13:54.012Z,20.7
2023-05-18T08:18:56.503Z,20.6
2023-05-18T08:23:56.617Z,20.6
2023-05-18T08:28:57.054Z,20.6
2023-05-18T08:33:57.563Z,20.6
2023-05-18T08:39:00.881Z,20.6
2023-05-18T08:44:00.773Z,20.6
2023-05-18T08:49:01.862Z,20.6
2023-05-18T08:54:04.917Z,20.7
2023-05-18T08:59:07.387Z,20.7
2023-05-18T09:04:07.198Z,20.6
2023-05-18T09:09:07.662Z,20.5
2023-05-18T09:14:10.687Z,20.7
2023-05-18T09:19:10.455Z,20.6
2023-05-18T09:24:13.680Z,20.6
2023-05-18T09:29:14.336Z,20.6
2023-05-18T09:34:14.685Z,20.7
2023-05-18T09:39:15.320Z,20.7
2023-05-18T09:44:18.366Z,20.7
2023-05-18T09:49:21.006Z,20.7
2023-05-18T09:54:22.458Z,20.6
2023-05-18T09:59:21.786Z,20.7
2023-05-18T10:04:25.172Z,20.7
2023-05-18T10:09:25.996Z,20.7
2023-05-18T10:14:26.748Z,20.7
2023-05-18T10:19:27.288Z,20.6
2023-05-18T10:24:30.281Z,20.7
2023-05-18T10:29:31.109Z,20.7
2023-05-18T10:34:31.371Z,20.6
2023-05-18T10:39:34.634Z,20.6
2023-05-18T10:44:37.297Z,20.6
2023-05-18T10:49:39.948Z,20.6
2023-05-18T10:54:42.694Z,20.7
2023-05-18T10:59:42.993Z,20.7
2023-05-18T11:04:43.332Z,20.7
2023-05-18T11:09:43.734Z,20.7
2023-05-18T11:14:46.896Z,20.7
2023-05-18T11:19:46.920Z,20.7
2023-05-18T11:24:48.380Z,20.7
2023-05-18T11:29:55.449Z,20.7
2023-05-18T11:34:53.962Z,20.7
2023-05-18T11:39:59.604Z,20.7
2023-05-18T11:44:54.307Z,20.7
2023-05-18T11:49:54.862Z,20.7
2023-05-18T11:54:55.382Z,20.7
2023-05-18T11:59:55.857Z,20.7
2023-05-18T12:04:56.238Z,20.7
2023-05-18T12:09:56.705Z,20.7
2023-05-18T12:14:57.053Z,20.7
2023-05-18T12:19:57.726Z,20.7
2023-05-18T12:24:57.942Z,20.7
2023-05-18T12:30:01.083Z,20.7
2023-05-18T12:35:01.112Z,20.7
2023-05-18T12:40:03.205Z,20.7
2023-05-18T12:45:04.481Z,20.7
2023-05-18T12:50:04.201Z,20.7
2023-05-18T12:55:04.661Z,20.7
2023-05-18T13:00:04.828Z,20.7
2023-05-18T13:05:05.422Z,20.7
2023-05-18T13:10:05.982Z,20.7
2023-05-18T13:15:11.952Z,20.7
2023-05-18T13:20:17.214Z,20.7
2023-05-18T13:25:19.448Z,20.7
2023-05-18T13:30:19.231Z,20.6
2023-05-18T13:35:22.441Z,20.7
2023-05-18T13:40:22.544Z,20.6
2023-05-18T13:45:23.165Z,20.7
2023-05-18T13:50:23.713Z,20.6
2023-05-18T13:55:23.882Z,20.7
2023-05-18T14:00:25.066Z,20.8
2023-05-18T14:05:25.055Z,20.8
2023-05-18T14:10:25.492Z,20.7
2023-05-18T14:15:26.160Z,20.8
2023-05-18T14:20:26.915Z,20.9
2023-05-18T14:25:27.399Z,20.8
2023-05-18T14:30:21.355Z,20.8
2023-05-18T14:35:24.540Z,20.9
2023-05-18T14:40:24.608Z,20.9
2023-05-18T14:45:25.105Z,20.9
2023-05-18T14:50:25.622Z,20.9
2023-05-18T14:55:28.983Z,20.9
2023-05-18T15:00:29.170Z,20.9
2023-05-18T15:05:29.494Z,20.8
2023-05-18T15:10:32.954Z,21
2023-05-18T15:15:32.906Z,20.9
2023-05-18T15:20:33.421Z,21
2023-05-18T15:25:33.523Z,20.9
2023-05-18T15:30:34.262Z,21
2023-05-18T15:35:37.685Z,21
2023-05-18T15:40:37.857Z,21
2023-05-18T15:45:38.642Z,21
2023-05-18T15:50:39.181Z,21
2023-05-18T15:55:39.627Z,21
2023-05-18T16:00:42.033Z,21
2023-05-18T16:05:42.260Z,21
2023-05-18T16:10:42.640Z,21
2023-05-18T16:15:43.169Z,20.9
2023-05-18T16:20:43.835Z,21
2023-05-18T16:25:44.199Z,21
2023-05-18T16:30:47.255Z,21
2023-05-18T16:35:47.940Z,20.9
2023-05-18T16:40:48.091Z,21
2023-05-18T16:45:49.452Z,21
2023-05-18T16:50:49.611Z,21
2023-05-18T16:55:50.317Z,21
2023-05-18T17:00:53.469Z,21
2023-05-18T17:05:54.274Z,21
2023-05-18T17:10:54.646Z,21
2023-05-18T17:15:57.893Z,21
2023-05-18T17:21:00.826Z,21
2023-05-18T17:26:06.527Z,21
2023-05-18T17:31:01.771Z,21
2023-05-18T17:36:03.183Z,21
2023-05-18T17:41:13.067Z,21
2023-05-18T17:46:12.210Z,20.9
2023-05-18T17:51:12.815Z,21
2023-05-18T17:56:15.061Z,21
2023-05-18T18:01:15.198Z,21
2023-05-18T18:06:18.519Z,21
2023-05-18T18:11:21.436Z,21
2023-05-18T18:16:36.717Z,20.9
2023-05-18T18:21:35.019Z,21
2023-05-18T18:26:35.639Z,20.9
2023-05-18T18:31:38.963Z,20.9
2023-05-18T18:36:38.944Z,20.9
2023-05-18T18:41:39.519Z,20.8
2023-05-18T18:46:40.061Z,20.8
2023-05-18T18:51:40.568Z,20.8
2023-05-18T18:56:53.347Z,20.7
2023-05-18T19:01:53.263Z,20.9
2023-05-18T19:06:53.142Z,20.8
2023-05-18T19:11:53.757Z,20.8
2023-05-18T19:16:54.190Z,20.8
2023-05-18T19:21:54.879Z,20.7
2023-05-18T19:26:55.374Z,20.8
2023-05-18T19:31:55.724Z,20.7
2023-05-18T19:36:56.212Z,20.8
2023-05-18T19:41:57.490Z,20.7
2023-05-18T19:46:57.805Z,20.7
2023-05-18T19:52:00.828Z,20.7
2023-05-18T19:57:00.860Z,20.7
2023-05-18T20:02:01.702Z,20.7
2023-05-18T20:07:02.263Z,20.6
2023-05-18T20:12:02.887Z,20.6
2023-05-18T20:17:04.119Z,20.7
2023-05-18T20:22:05.068Z,20.6
2023-05-18T20:27:05.704Z,20.6
2023-05-18T20:32:06.300Z,20.6
2023-05-18T20:37:08.476Z,20.6
2023-05-18T20:42:07.320Z,20.6
2023-05-18T20:47:07.832Z,20.5
2023-05-18T20:52:08.755Z,20.6
2023-05-18T20:57:13.031Z,20.6
2023-05-18T21:02:13.125Z,20.6
2023-05-18T21:07:13.515Z,20.5
2023-05-18T21:12:13.956Z,20.5
2023-05-18T21:17:15.673Z,20.4
2023-05-18T21:22:15.859Z,20.5
2023-05-18T21:27:16.561Z,20.5
2023-05-18T21:32:17.502Z,20.5
2023-05-18T21:37:17.937Z,20.5
2023-05-18T21:42:18.283Z,20.5
2023-05-18T21:47:18.938Z,20.4
2023-05-18T21:52:19.623Z,20.5
2023-05-18T21:57:22.990Z,20.5
2023-05-18T22:02:23.135Z,20.5
2023-05-18T22:07:25.459Z,20.5
2023-05-18T22:12:25.802Z,20.5
2023-05-18T22:17:26.230Z,20.5
2023-05-18T22:22:30.037Z,20.4
2023-05-18T22:27:27.005Z,20.4
2023-05-18T22:32:30.488Z,20.5
2023-05-18T22:37:30.628Z,20.4
2023-05-18T22:42:31.236Z,20.4
2023-05-18T22:47:31.666Z,20.4
2023-05-18T22:52:32.011Z,20.4
2023-05-18T22:57:35.356Z,20.4
2023-05-18T23:02:35.522Z,20.4
2023-05-18T23:07:36.347Z,20.4
2023-05-18T23:12:36.991Z,20.4
2023-05-18T23:17:37.450Z,20.4
2023-05-18T23:21:49.768Z,20.3
2023-05-18T23:26:53.071Z,20.3
2023-05-18T23:31:53.085Z,20.3
2023-05-18T23:36:48.688Z,20.4
2023-05-18T23:41:48.708Z,20.3
2023-05-18T23:46:52.029Z,20.4
2023-05-18T23:51:52.109Z,20.4
2023-05-18T23:56:52.749Z,20.3
